createdAt,value
2023-07-26T00:01:50.240Z,4.90
2023-07-26T00:04:16.873Z,5.10
2023-07-26T00:06:43.539Z,5.60
2023-07-26T00:09:10.278Z,5.10
2023-07-26T00:11:37.784Z,4.80
2023-07-26T00:14:06.506Z,5.00
2023-07-26T00:16:34.789Z,4.00
2023-07-26T00:19:02.315Z,6.30
2023-07-26T00:21:29.590Z,5.50
2023-07-26T00:23:56.325Z,4.50
2023-07-26T00:26:23.055Z,5.40
2023-07-26T00:28:49.676Z,6.90
2023-07-26T00:31:16.351Z,4.80
2023-07-26T00:33:43.030Z,4.40
2023-07-26T00:36:10.566Z,4.90
2023-07-26T00:38:37.393Z,5.50
2023-07-26T00:41:04.132Z,5.20
2023-07-26T00:43:30.896Z,5.20
2023-07-26T00:45:57.749Z,5.20
2023-07-26T00:48:25.834Z,5.40
2023-07-26T00:50:53.010Z,6.20
2023-07-26T00:53:20.259Z,4.30
2023-07-26T00:55:47.052Z,5.70
2023-07-26T00:58:15.629Z,5.70
2023-07-26T01:00:45.988Z,6.30
2023-07-26T01:03:13.967Z,6.20
2023-07-26T01:06:28.943Z,7.20
2023-07-26T01:09:10.771Z,5.80
2023-07-26T01:11:50.018Z,6.30
2023-07-26T01:14:34.468Z,6.40
2023-07-26T01:17:01.176Z,7.20
2023-07-26T01:19:27.860Z,9.00
2023-07-26T01:21:54.533Z,6.50
2023-07-26T01:24:21.276Z,7.30
2023-07-26T01:26:47.978Z,7.80
2023-07-26T01:29:14.730Z,5.60
2023-07-26T01:31:42.060Z,6.70
2023-07-26T01:34:10.386Z,8.00
2023-07-26T01:36:38.159Z,8.40
2023-07-26T01:39:08.612Z,6.30
2023-07-26T01:41:36.600Z,5.50
2023-07-26T01:44:05.040Z,6.50
2023-07-26T01:46:31.693Z,8.50
2023-07-26T01:48:58.646Z,6.20
2023-07-26T01:51:25.428Z,6.50
2023-07-26T01:53:52.075Z,6.90
2023-07-26T01:56:18.744Z,7.00
2023-07-26T01:58:45.399Z,6.90
2023-07-26T02:01:12.138Z,6.00
2023-07-26T02:03:38.810Z,7.40
2023-07-26T02:06:05.542Z,6.70
2023-07-26T02:08:32.201Z,6.90
2023-07-26T02:10:59.329Z,9.10
2023-07-26T02:13:26.018Z,7.00
2023-07-26T02:15:52.653Z,6.30
2023-07-26T02:18:19.450Z,7.30
2023-07-26T02:20:46.112Z,6.40
2023-07-26T02:23:12.776Z,6.80
2023-07-26T02:25:39.410Z,6.90
2023-07-26T02:28:06.128Z,7.10
2023-07-26T02:30:32.756Z,7.10
2023-07-26T02:32:59.479Z,6.60
2023-07-26T02:35:26.184Z,7.10
2023-07-26T02:37:52.830Z,7.00
2023-07-26T02:40:19.447Z,8.60
2023-07-26T02:42:46.066Z,7.90
2023-07-26T02:45:12.634Z,6.70
2023-07-26T02:47:39.269Z,9.00
2023-07-26T02:50:06.384Z,7.00
2023-07-26T02:52:34.395Z,6.70
2023-07-26T02:55:02.250Z,8.30
2023-07-26T02:57:28.916Z,9.20
2023-07-26T02:59:55.647Z,7.80
2023-07-26T03:02:23.804Z,7.20
2023-07-26T03:04:50.832Z,7.90
2023-07-26T03:07:17.444Z,6.80
2023-07-26T03:09:44.134Z,6.90
2023-07-26T03:12:10.823Z,8.10
2023-07-26T03:14:42.056Z,8.10
2023-07-26T03:19:41.701Z,8.00
2023-07-26T03:22:08.467Z,8.00
2023-07-26T03:24:35.182Z,8.70
2023-07-26T03:27:02.146Z,7.70
2023-07-26T03:29:28.822Z,7.90
2023-07-26T03:31:55.535Z,7.30
2023-07-26T03:34:22.218Z,7.80
2023-07-26T03:36:48.922Z,7.30
2023-07-26T03:39:15.644Z,8.40
2023-07-26T03:41:42.315Z,8.30
2023-07-26T03:44:08.977Z,8.90
2023-07-26T03:46:35.771Z,7.00
2023-07-26T03:49:04.976Z,8.00
2023-07-26T03:51:31.671Z,8.20
2023-07-26T03:53:58.265Z,9.10
2023-07-26T03:56:25.062Z,7.20
2023-07-26T03:58:51.784Z,8.30
2023-07-26T04:01:18.485Z,7.60
2023-07-26T04:03:45.322Z,8.00
2023-07-26T04:06:13.838Z,8.70
2023-07-26T04:08:43.563Z,8.00
2023-07-26T04:11:12.941Z,8.00
2023-07-26T04:13:39.537Z,8.90
2023-07-26T04:16:18.457Z,7.80
2023-07-26T04:18:46.126Z,9.30
2023-07-26T04:21:18.709Z,8.60
2023-07-26T04:23:47.294Z,7.00
2023-07-26T04:26:14.349Z,10.50
2023-07-26T04:28:41.080Z,9.00
2023-07-26T04:31:07.828Z,8.10
2023-07-26T04:33:34.598Z,9.50
2023-07-26T04:36:01.469Z,8.90
2023-07-26T04:38:28.397Z,9.50
2023-07-26T04:40:55.097Z,11.50
2023-07-26T04:43:21.896Z,11.10
2023-07-26T04:45:51.003Z,11.80
2023-07-26T04:48:19.570Z,9.70
2023-07-26T04:50:48.603Z,11.00
2023-07-26T04:53:16.301Z,10.40
2023-07-26T04:55:49.436Z,10.00
2023-07-26T04:58:16.621Z,10.90
2023-07-26T05:00:43.474Z,13.20
2023-07-26T05:03:11.169Z,11.80
2023-07-26T05:05:38.602Z,12.30
2023-07-26T05:08:07.547Z,10.40
2023-07-26T05:10:35.187Z,11.80
2023-07-26T05:13:02.027Z,10.60
2023-07-26T05:15:28.845Z,10.60
2023-07-26T05:17:55.795Z,10.90
2023-07-26T05:20:22.407Z,14.50
2023-07-26T05:22:49.069Z,12.70
2023-07-26T05:25:15.792Z,12.00
2023-07-26T05:27:42.491Z,14.20
2023-07-26T05:30:09.633Z,13.00
2023-07-26T05:32:36.413Z,14.80
2023-07-26T05:35:04.180Z,12.60
2023-07-26T05:37:35.716Z,14.20
2023-07-26T05:40:04.236Z,11.90
2023-07-26T05:42:31.029Z,13.50
2023-07-26T05:44:57.741Z,14.80
2023-07-26T05:47:25.213Z,15.00
2023-07-26T05:49:51.918Z,14.70
2023-07-26T05:52:20.340Z,13.60
2023-07-26T05:54:47.302Z,11.90
2023-07-26T05:57:14.025Z,13.70
2023-07-26T05:59:40.758Z,14.90
2023-07-26T06:02:07.400Z,13.70
2023-07-26T06:04:36.213Z,14.00
2023-07-26T06:07:05.034Z,15.10
2023-07-26T06:09:35.276Z,14.50
2023-07-26T06:12:02.537Z,14.70
2023-07-26T06:14:30.265Z,13.70
2023-07-26T06:16:57.240Z,15.10
2023-07-26T06:19:24.293Z,14.90
2023-07-26T06:21:56.833Z,15.00
2023-07-26T06:24:25.688Z,14.30
2023-07-26T06:26:55.761Z,14.40
2023-07-26T06:29:22.765Z,14.30
2023-07-26T06:31:49.953Z,14.90
2023-07-26T06:34:16.815Z,13.60
2023-07-26T06:36:43.500Z,13.40
2023-07-26T06:39:10.312Z,14.00
2023-07-26T06:41:36.954Z,13.40
2023-07-26T06:44:04.215Z,14.30
2023-07-26T06:46:30.942Z,14.90
2023-07-26T06:48:57.625Z,15.60
2023-07-26T06:51:24.241Z,14.80
2023-07-26T06:53:50.999Z,14.10
2023-07-26T06:56:21.768Z,15.90
2023-07-26T06:58:50.269Z,13.20
2023-07-26T07:01:18.635Z,13.40
2023-07-26T07:03:46.269Z,15.20
2023-07-26T07:06:15.516Z,12.70
2023-07-26T07:08:42.236Z,11.40
2023-07-26T07:11:08.854Z,12.40
2023-07-26T07:13:37.400Z,11.00
2023-07-26T07:16:05.395Z,10.10
2023-07-26T07:18:33.341Z,12.00
2023-07-26T07:21:02.179Z,12.00
2023-07-26T07:23:31.098Z,13.50
2023-07-26T07:25:58.037Z,14.10
2023-07-26T07:28:25.573Z,12.60
2023-07-26T07:30:52.727Z,9.20
2023-07-26T07:33:19.579Z,10.00
2023-07-26T07:35:46.432Z,10.50
2023-07-26T07:38:13.089Z,9.00
2023-07-26T07:40:39.780Z,8.40
2023-07-26T07:43:06.488Z,12.20
2023-07-26T07:45:33.193Z,8.40
2023-07-26T07:47:59.895Z,8.00
2023-07-26T07:50:26.635Z,10.70
2023-07-26T07:52:53.265Z,8.80
2023-07-26T07:55:20.018Z,7.30
2023-07-26T07:57:46.721Z,8.70
2023-07-26T08:00:14.015Z,8.10
2023-07-26T08:02:41.144Z,8.50
2023-07-26T08:05:08.153Z,7.50
2023-07-26T08:07:34.819Z,9.20
2023-07-26T08:10:01.692Z,10.60
2023-07-26T08:12:28.335Z,8.30
2023-07-26T08:14:54.991Z,8.00
2023-07-26T08:17:21.627Z,9.10
2023-07-26T08:19:48.323Z,9.30
2023-07-26T08:22:15.031Z,8.10
2023-07-26T08:24:42.212Z,8.60
2023-07-26T08:27:09.484Z,7.80
2023-07-26T08:29:36.193Z,9.70
2023-07-26T08:32:02.992Z,7.80
2023-07-26T08:34:29.638Z,10.70
2023-07-26T08:36:56.307Z,9.10
2023-07-26T08:39:34.320Z,6.60
2023-07-26T08:42:04.517Z,8.10
2023-07-26T08:44:34.259Z,7.60
2023-07-26T08:47:01.907Z,8.80
2023-07-26T08:49:30.054Z,7.90
2023-07-26T08:51:58.943Z,8.10
2023-07-26T08:54:25.663Z,8.90
2023-07-26T08:56:53.751Z,9.70
2023-07-26T08:59:20.371Z,6.60
2023-07-26T09:02:01.832Z,8.00
2023-07-26T09:04:32.745Z,6.80
2023-07-26T09:07:07.109Z,6.30
2023-07-26T09:09:36.016Z,6.80
2023-07-26T09:12:04.239Z,5.80
2023-07-26T09:14:33.293Z,6.10
2023-07-26T09:17:05.127Z,5.30
2023-07-26T09:19:40.199Z,6.00
2023-07-26T09:22:09.905Z,6.20
2023-07-26T09:24:41.235Z,5.80
2023-07-26T09:27:12.169Z,6.20
2023-07-26T09:29:42.281Z,5.30
2023-07-26T09:32:09.574Z,6.10
2023-07-26T09:34:36.501Z,5.10
2023-07-26T09:37:03.714Z,6.40
2023-07-26T09:39:33.209Z,5.60
2023-07-26T09:42:07.937Z,4.50
2023-07-26T09:44:37.031Z,5.40
2023-07-26T09:47:04.372Z,6.90
2023-07-26T09:49:32.214Z,5.30
2023-07-26T09:54:35.909Z,5.70
2023-07-26T09:57:07.551Z,5.20
2023-07-26T09:59:40.327Z,5.70
2023-07-26T10:02:12.303Z,5.50
2023-07-26T10:04:52.162Z,5.30
2023-07-26T10:07:19.581Z,6.70
2023-07-26T10:09:48.898Z,5.70
2023-07-26T10:12:16.444Z,5.70
2023-07-26T10:14:44.212Z,6.60
2023-07-26T10:17:14.409Z,6.90
2023-07-26T10:19:45.189Z,5.80
2023-07-26T10:22:12.681Z,5.20
2023-07-26T10:24:43.465Z,7.10
2023-07-26T10:27:11.348Z,5.20
2023-07-26T10:29:38.152Z,4.70
2023-07-26T10:32:08.287Z,7.00
2023-07-26T10:34:35.579Z,7.50
2023-07-26T10:37:17.443Z,5.90
2023-07-26T10:39:45.282Z,4.50
2023-07-26T10:42:30.688Z,5.90
2023-07-26T10:45:02.908Z,4.80
2023-07-26T10:47:30.903Z,5.80
2023-07-26T10:50:07.433Z,6.00
2023-07-26T10:52:38.950Z,5.30
2023-07-26T10:55:23.918Z,4.90
2023-07-26T10:57:50.862Z,7.90
2023-07-26T11:00:23.947Z,5.90
2023-07-26T11:03:01.215Z,5.70
2023-07-26T11:05:30.657Z,6.00
2023-07-26T11:08:09.185Z,4.50
2023-07-26T11:10:39.180Z,7.00
2023-07-26T11:13:19.501Z,6.20
2023-07-26T11:16:15.730Z,5.40
2023-07-26T11:18:44.248Z,5.00
2023-07-26T11:21:17.986Z,5.00
2023-07-26T11:23:45.328Z,5.50
2023-07-26T11:26:12.001Z,4.90
2023-07-26T11:28:39.380Z,4.70
2023-07-26T11:31:06.927Z,5.30
2023-07-26T11:33:44.899Z,6.10
2023-07-26T11:36:21.195Z,5.00
2023-07-26T11:38:49.205Z,6.90
2023-07-26T11:41:20.087Z,6.10
2023-07-26T11:43:48.514Z,4.70
2023-07-26T11:46:15.311Z,6.30
2023-07-26T11:48:45.825Z,7.90
2023-07-26T11:51:12.589Z,6.30
2023-07-26T11:53:46.160Z,4.50
2023-07-26T11:56:16.108Z,4.50
2023-07-26T11:58:43.655Z,5.40
2023-07-26T12:01:10.536Z,3.80
2023-07-26T12:03:37.891Z,4.20
2023-07-26T12:06:08.872Z,4.60
2023-07-26T12:08:39.443Z,3.70
2023-07-26T12:11:07.629Z,5.70
2023-07-26T12:13:37.793Z,7.30
2023-07-26T12:16:05.529Z,8.50
2023-07-26T12:18:33.458Z,8.60
2023-07-26T12:21:14.272Z,6.20
2023-07-26T12:24:04.481Z,5.90
2023-07-26T12:26:36.342Z,6.90
2023-07-26T12:29:06.587Z,4.90
2023-07-26T12:31:36.773Z,6.50
2023-07-26T12:34:12.894Z,4.40
2023-07-26T12:36:42.317Z,6.90
2023-07-26T12:39:10.987Z,5.50
2023-07-26T12:41:43.577Z,4.30
2023-07-26T12:44:11.596Z,4.70
2023-07-26T12:47:11.297Z,4.90
2023-07-26T12:49:28.294Z,5.60
2023-07-26T12:51:55.435Z,4.80
2023-07-26T12:54:25.004Z,4.40
2023-07-26T12:56:53.426Z,4.80
2023-07-26T12:59:20.187Z,6.10
2023-07-26T13:01:46.940Z,4.80
2023-07-26T13:04:13.746Z,3.70
2023-07-26T13:06:40.785Z,6.80
2023-07-26T13:09:08.807Z,4.50
2023-07-26T13:11:35.571Z,4.30
2023-07-26T13:14:02.742Z,5.00
2023-07-26T13:16:32.766Z,4.60
2023-07-26T13:19:04.954Z,5.20
2023-07-26T13:21:32.833Z,5.80
2023-07-26T13:24:00.160Z,5.10
2023-07-26T13:26:29.242Z,4.20
2023-07-26T13:28:55.869Z,4.20
2023-07-26T13:31:23.183Z,4.90
2023-07-26T13:33:51.820Z,4.50
2023-07-26T13:36:23.288Z,6.40
2023-07-26T13:38:50.305Z,3.50
2023-07-26T13:41:17.048Z,4.10
2023-07-26T13:43:43.593Z,4.80
2023-07-26T13:46:24.280Z,4.70
2023-07-26T13:48:56.973Z,6.80
2023-07-26T13:51:23.692Z,5.80
2023-07-26T13:53:50.278Z,3.90
2023-07-26T13:56:17.001Z,5.90
2023-07-26T13:58:44.031Z,6.00
2023-07-26T14:01:12.201Z,6.50
2023-07-26T14:03:38.882Z,5.40
2023-07-26T14:06:06.247Z,5.70
2023-07-26T14:08:32.891Z,5.40
2023-07-26T14:11:00.495Z,5.60
2023-07-26T14:13:27.312Z,5.40
2023-07-26T14:16:00.764Z,5.90
2023-07-26T14:18:34.512Z,4.60
2023-07-26T14:21:01.305Z,5.80
2023-07-26T14:23:31.995Z,3.80
2023-07-26T14:26:00.474Z,4.20
2023-07-26T14:28:28.268Z,5.70
2023-07-26T14:30:56.037Z,4.60
2023-07-26T14:33:22.884Z,5.10
2023-07-26T14:35:49.504Z,5.20
2023-07-26T14:38:16.148Z,5.90
2023-07-26T14:40:43.282Z,3.60
2023-07-26T14:43:09.902Z,4.90
2023-07-26T14:45:36.518Z,6.30
2023-07-26T14:48:03.589Z,4.60
2023-07-26T14:50:30.214Z,4.60
2023-07-26T14:52:56.828Z,4.80
2023-07-26T14:55:23.689Z,4.00
2023-07-26T14:57:50.379Z,4.10
2023-07-26T15:00:17.229Z,7.20
2023-07-26T15:02:44.067Z,5.90
2023-07-26T15:05:10.875Z,4.50
2023-07-26T15:07:38.749Z,4.60
2023-07-26T15:10:08.090Z,6.60
2023-07-26T15:12:35.085Z,4.90
2023-07-26T15:15:01.972Z,5.40
2023-07-26T15:17:28.615Z,2.60
2023-07-26T15:19:56.513Z,10.70
2023-07-26T15:22:24.538Z,4.80
2023-07-26T15:24:51.244Z,3.90
2023-07-26T15:27:18.687Z,4.50
2023-07-26T15:29:45.424Z,4.10
2023-07-26T15:32:15.312Z,4.80
2023-07-26T15:34:42.372Z,3.00
2023-07-26T15:37:09.110Z,3.80
2023-07-26T15:39:35.755Z,3.40
2023-07-26T15:49:36.415Z,3.90
2023-07-26T15:52:05.638Z,3.50
2023-07-26T15:54:32.788Z,3.70
2023-07-26T15:56:59.410Z,4.10
2023-07-26T15:59:26.148Z,2.90
2023-07-26T16:01:52.937Z,4.30
2023-07-26T16:19:54.043Z,4.00
2023-07-26T16:22:08.854Z,4.00
2023-07-26T16:24:35.931Z,4.50
2023-07-26T16:27:02.763Z,4.10
2023-07-26T16:29:29.498Z,4.40
2023-07-26T16:31:56.321Z,5.60
2023-07-26T16:34:22.991Z,2.40
2023-07-26T16:36:49.602Z,3.80
2023-07-26T16:39:16.330Z,5.30
2023-07-26T16:41:44.231Z,4.50
2023-07-26T16:44:11.264Z,3.60
2023-07-26T16:46:57.772Z,4.70
2023-07-26T16:49:24.481Z,4.50
2023-07-26T16:51:51.211Z,6.30
2023-07-26T16:54:17.876Z,6.20
2023-07-26T16:56:44.558Z,5.10
2023-07-26T16:59:11.272Z,6.60
2023-07-26T17:01:38.076Z,5.40
2023-07-26T17:04:05.171Z,5.50
2023-07-26T17:06:32.201Z,3.70
2023-07-26T17:08:59.373Z,4.00
2023-07-26T17:11:26.108Z,4.30
2023-07-26T17:13:52.717Z,4.80
2023-07-26T17:16:19.384Z,5.70
2023-07-26T17:18:47.970Z,5.60
2023-07-26T17:21:15.934Z,5.40
2023-07-26T17:23:43.510Z,4.90
2023-07-26T17:26:10.739Z,4.50
2023-07-26T17:28:37.723Z,3.30
2023-07-26T17:31:04.557Z,3.70
2023-07-26T17:33:32.539Z,4.30
2023-07-26T17:36:00.369Z,5.20
2023-07-26T17:38:27.703Z,4.40
2023-07-26T17:41:05.282Z,4.10
2023-07-26T17:43:33.884Z,3.70
2023-07-26T17:46:00.568Z,5.80
2023-07-26T17:48:28.349Z,6.10
2023-07-26T17:50:55.267Z,4.30
2023-07-26T17:53:23.191Z,4.80
2023-07-26T17:55:49.902Z,4.50
2023-07-26T17:58:16.536Z,4.60
2023-07-26T18:00:43.451Z,5.50
2023-07-26T18:03:10.457Z,4.70
2023-07-26T18:05:37.240Z,5.90
2023-07-26T18:08:06.065Z,5.00
2023-07-26T18:10:35.998Z,5.70
2023-07-26T18:13:03.865Z,5.50
2023-07-26T18:15:30.899Z,5.70
2023-07-26T18:17:57.715Z,5.30
2023-07-26T18:20:24.534Z,5.70
2023-07-26T18:22:51.212Z,4.30
2023-07-26T18:25:18.305Z,5.20
2023-07-26T18:27:44.947Z,7.60
2023-07-26T18:30:12.825Z,5.00
2023-07-26T18:32:39.678Z,5.70
2023-07-26T18:35:06.892Z,8.20
2023-07-26T18:37:33.561Z,4.90
2023-07-26T18:40:00.756Z,6.20
2023-07-26T18:42:27.424Z,4.70
2023-07-26T18:44:54.031Z,6.40
2023-07-26T18:47:20.693Z,5.90
2023-07-26T18:49:47.366Z,5.50
2023-07-26T18:52:14.067Z,6.10
2023-07-26T18:54:40.723Z,6.30
2023-07-26T18:57:07.585Z,5.30
2023-07-26T18:59:34.235Z,5.50
2023-07-26T19:02:00.916Z,5.50
2023-07-26T19:04:27.628Z,5.60
2023-07-26T19:06:54.403Z,6.40
2023-07-26T19:09:21.107Z,4.80
2023-07-26T19:11:50.337Z,6.80
2023-07-26T19:14:17.161Z,5.10
2023-07-26T19:16:44.050Z,5.80
2023-07-26T19:19:10.818Z,5.70
2023-07-26T19:21:37.573Z,5.40
2023-07-26T19:24:06.358Z,5.20
2023-07-26T19:26:33.144Z,4.70
2023-07-26T19:29:00.042Z,4.80
2023-07-26T19:31:26.653Z,5.10
2023-07-26T19:33:53.397Z,4.90
2023-07-26T19:36:20.131Z,6.20
2023-07-26T19:38:46.833Z,5.10
2023-07-26T19:41:17.087Z,4.90
2023-07-26T19:43:44.082Z,5.30
2023-07-26T19:46:16.228Z,4.60
2023-07-26T19:48:44.306Z,4.90
2023-07-26T19:51:11.070Z,5.00
2023-07-26T19:53:37.736Z,4.90
2023-07-26T19:56:04.969Z,4.50
2023-07-26T19:58:31.600Z,5.90
2023-07-26T20:00:59.018Z,6.10
2023-07-26T20:03:26.527Z,4.70
2023-07-26T20:05:54.187Z,4.60
2023-07-26T20:08:23.532Z,7.00
2023-07-26T20:10:51.416Z,4.60
2023-07-26T20:13:18.716Z,4.50
2023-07-26T20:15:46.493Z,5.20
2023-07-26T20:18:14.489Z,4.60
2023-07-26T20:20:45.338Z,4.60
2023-07-26T20:23:12.117Z,5.00
2023-07-26T20:25:40.386Z,4.00
2023-07-26T20:28:08.395Z,5.20
2023-07-26T20:30:37.094Z,4.90
2023-07-26T20:33:03.954Z,4.60
2023-07-26T20:35:30.685Z,5.60
2023-07-26T20:37:57.479Z,5.20
2023-07-26T20:40:24.321Z,4.00
2023-07-26T20:42:51.152Z,5.20
2023-07-26T20:45:17.780Z,4.80
2023-07-26T20:47:44.915Z,3.30
2023-07-26T20:50:11.750Z,4.20
2023-07-26T20:52:38.370Z,4.30
2023-07-26T20:55:05.883Z,4.30
2023-07-26T20:57:32.471Z,4.70
2023-07-26T20:59:59.249Z,3.20
2023-07-26T21:02:25.950Z,4.40
2023-07-26T21:04:52.635Z,4.20
2023-07-26T21:07:19.269Z,4.70
2023-07-26T21:09:45.845Z,5.40
2023-07-26T21:12:12.508Z,4.50
2023-07-26T21:14:39.271Z,5.10
2023-07-26T21:17:06.271Z,5.40
2023-07-26T21:19:33.564Z,5.10
2023-07-26T21:22:00.410Z,3.80
2023-07-26T21:24:27.119Z,4.10
2023-07-26T21:26:53.800Z,4.00
2023-07-26T21:29:20.345Z,4.30
2023-07-26T21:31:47.043Z,4.90
2023-07-26T21:34:13.840Z,5.90
2023-07-26T21:36:40.484Z,4.10
2023-07-26T21:39:08.258Z,5.60
2023-07-26T21:41:34.948Z,4.00
2023-07-26T21:44:01.565Z,6.50
2023-07-26T21:46:28.291Z,5.10
2023-07-26T21:48:54.919Z,4.50
2023-07-26T21:51:21.650Z,5.30
2023-07-26T21:53:48.317Z,4.90
2023-07-26T21:56:15.024Z,4.80
2023-07-26T21:58:41.752Z,6.20
2023-07-26T22:01:08.493Z,5.30
2023-07-26T22:03:35.265Z,5.30
2023-07-26T22:06:02.047Z,7.10
2023-07-26T22:08:28.784Z,5.10
2023-07-26T22:11:00.237Z,5.00
2023-07-26T22:13:27.460Z,4.60
2023-07-26T22:15:54.231Z,5.40
2023-07-26T22:18:21.288Z,3.80
2023-07-26T22:21:07.732Z,4.10
2023-07-26T22:23:34.738Z,4.20
2023-07-26T22:26:13.386Z,4.60
2023-07-26T22:28:42.545Z,4.70
2023-07-26T22:31:09.549Z,4.90
2023-07-26T22:33:36.371Z,4.50
2023-07-26T22:36:04.861Z,5.60
2023-07-26T22:38:31.553Z,5.60
2023-07-26T22:40:58.193Z,4.60
2023-07-26T22:43:24.804Z,4.20
2023-07-26T22:45:51.627Z,5.10
2023-07-26T22:48:18.374Z,4.80
2023-07-26T22:50:44.999Z,5.90
2023-07-26T22:53:11.609Z,4.50
2023-07-26T22:55:38.289Z,4.60
2023-07-26T22:58:06.500Z,6.00
2023-07-26T23:00:33.492Z,5.20
2023-07-26T23:03:00.246Z,4.20
2023-07-26T23:05:27.060Z,11.10
2023-07-26T23:07:53.646Z,4.90
2023-07-26T23:10:21.598Z,5.10
2023-07-26T23:12:48.361Z,6.70
2023-07-26T23:15:15.141Z,5.60
2023-07-26T23:17:41.850Z,5.60
2023-07-26T23:20:09.067Z,5.10
2023-07-26T23:22:35.693Z,4.80
2023-07-26T23:25:02.357Z,5.50
2023-07-26T23:27:29.081Z,5.30
2023-07-26T23:29:57.360Z,4.50
2023-07-26T23:32:24.281Z,5.20
2023-07-26T23:34:51.158Z,4.70
2023-07-26T23:37:17.692Z,5.20
2023-07-26T23:39:44.757Z,4.20
2023-07-26T23:42:11.457Z,4.30
2023-07-26T23:44:38.122Z,4.00
2023-07-26T23:47:05.258Z,4.40
2023-07-26T23:49:32.021Z,5.20
2023-07-26T23:51:58.626Z,4.00
2023-07-26T23:54:25.968Z,5.10
2023-07-26T23:56:52.593Z,7.00
2023-07-26T23:59:19.207Z,4.50
